createdAt,value
2017-06-01T00:00:06.963Z,14.25
2017-06-01T00:01:06.954Z,14.13
2017-06-01T00:02:07.253Z,14.14
2017-06-01T00:03:06.977Z,14.17
2017-06-01T00:04:06.916Z,14.12
2017-06-01T00:05:06.899Z,14.13
2017-06-01T00:06:07.207Z,14.13
2017-06-01T00:07:06.566Z,14.1
2017-06-01T00:08:07.189Z,14.1
2017-06-01T00:09:07.185Z,14.06
2017-06-01T00:10:06.532Z,14.1
2017-06-01T00:11:07.146Z,14.13
2017-06-01T00:12:06.825Z,14.1
2017-06-01T00:13:07.186Z,14.09
2017-06-01T00:14:06.996Z,14.02
2017-06-01T00:15:06.785Z,13.94
2017-06-01T00:16:07.090Z,13.89
2017-06-01T00:17:06.819Z,13.94
2017-06-01T00:18:06.435Z,13.89
2017-06-01T00:19:07.049Z,13.81
2017-06-01T00:20:06.731Z,13.8
2017-06-01T00:21:07.031Z,13.79
2017-06-01T00:22:07.019Z,13.8
2017-06-01T00:23:06.691Z,13.8
2017-06-01T00:24:06.678Z,13.76
2017-06-01T00:25:06.664Z,13.87
2017-06-01T00:26:06.968Z,13.8
2017-06-01T00:27:06.958Z,13.77
2017-06-01T00:28:06.630Z,13.71
2017-06-01T00:29:06.928Z,13.74
2017-06-01T00:30:06.917Z,13.76
2017-06-01T00:31:06.276Z,13.71
2017-06-01T00:32:06.579Z,13.65
2017-06-01T00:33:06.571Z,13.59
2017-06-01T00:34:06.874Z,13.63
2017-06-01T00:35:06.869Z,13.61
2017-06-01T00:36:06.533Z,13.54
2017-06-01T00:37:06.832Z,13.47
2017-06-01T00:38:06.821Z,13.51
2017-06-01T00:39:06.493Z,13.44
2017-06-01T00:40:06.488Z,13.32
2017-06-01T00:41:06.468Z,13.38
2017-06-01T00:42:06.772Z,13.37
2017-06-01T00:43:06.450Z,13.22
2017-06-01T00:44:06.442Z,13.29
2017-06-01T00:45:06.112Z,13.3
2017-06-01T00:46:06.412Z,13.3
2017-06-01T00:47:06.709Z,13.2
2017-06-01T00:48:06.693Z,13.25
2017-06-01T00:49:06.431Z,13.29
2017-06-01T00:50:06.672Z,13.17
2017-06-01T00:51:06.352Z,13.2
2017-06-01T00:52:06.652Z,13.12
2017-06-01T00:53:06.637Z,13.17
2017-06-01T00:54:06.626Z,13.12
2017-06-01T00:55:05.984Z,13.11
2017-06-01T00:56:06.596Z,13.14
2017-06-01T00:57:06.591Z,13.17
2017-06-01T00:58:05.943Z,13.22
2017-06-01T00:59:06.296Z,13.17
2017-06-01T01:00:06.236Z,13.09
2017-06-01T01:01:06.230Z,13.15
2017-06-01T01:02:06.208Z,13.22
2017-06-01T01:03:05.885Z,13.22
2017-06-01T01:04:06.534Z,13.18
2017-06-01T01:05:06.489Z,13.2
2017-06-01T01:06:05.847Z,13.09
2017-06-01T01:07:06.461Z,13.09
2017-06-01T01:08:06.128Z,13.02
2017-06-01T01:09:06.118Z,12.96
2017-06-01T01:10:06.103Z,12.99
2017-06-01T01:11:06.095Z,12.99
2017-06-01T01:12:06.080Z,12.97
2017-06-01T01:13:06.074Z,12.93
2017-06-01T01:14:06.367Z,12.84
2017-06-01T01:15:06.045Z,12.87
2017-06-01T01:16:06.032Z,12.92
2017-06-01T01:17:06.019Z,12.84
2017-06-01T01:18:06.002Z,12.79
2017-06-01T01:19:06.333Z,12.85
2017-06-01T01:20:06.299Z,12.88
2017-06-01T01:21:05.657Z,12.82
2017-06-01T01:22:05.957Z,12.74
2017-06-01T01:23:05.943Z,12.81
2017-06-01T01:24:05.934Z,12.77
2017-06-01T01:25:05.912Z,12.7
2017-06-01T01:26:05.904Z,12.7
2017-06-01T01:27:05.888Z,12.63
2017-06-01T01:28:06.217Z,12.57
2017-06-01T01:29:05.862Z,12.57
2017-06-01T01:30:05.854Z,12.51
2017-06-01T01:31:06.151Z,12.59
2017-06-01T01:32:05.824Z,12.6
2017-06-01T01:33:05.813Z,12.46
2017-06-01T01:34:05.800Z,12.54
2017-06-01T01:35:05.789Z,12.49
2017-06-01T01:36:05.775Z,12.41
2017-06-01T01:37:05.759Z,12.41
2017-06-01T01:38:05.746Z,12.56
2017-06-01T01:39:05.731Z,12.46
2017-06-01T01:40:05.723Z,12.44
2017-06-01T01:41:06.021Z,12.46
2017-06-01T01:42:05.696Z,12.46
2017-06-01T01:43:05.683Z,12.39
2017-06-01T01:44:05.671Z,12.37
2017-06-01T01:45:05.650Z,12.48
2017-06-01T01:46:05.326Z,12.41
2017-06-01T01:47:05.946Z,12.37
2017-06-01T01:48:05.928Z,12.41
2017-06-01T01:49:05.916Z,12.33
2017-06-01T01:50:05.900Z,12.3
2017-06-01T01:51:05.575Z,12.24
2017-06-01T01:52:05.561Z,12.23
2017-06-01T01:53:05.865Z,12.19
2017-06-01T01:54:05.855Z,12.16
2017-06-01T01:55:05.840Z,12.23
2017-06-01T01:56:05.509Z,12.23
2017-06-01T01:57:05.187Z,12.15
2017-06-01T01:58:05.172Z,12.13
2017-06-01T01:59:05.789Z,12.04
2017-06-01T02:00:05.462Z,12.06
2017-06-01T02:01:05.758Z,11.99
2017-06-01T02:02:05.745Z,12.02
2017-06-01T02:03:05.102Z,12.02
2017-06-01T02:04:05.720Z,11.99
2017-06-01T02:05:05.389Z,11.96
2017-06-01T02:06:05.065Z,11.94
2017-06-01T02:07:05.364Z,11.99
2017-06-01T02:08:05.352Z,11.97
2017-06-01T02:09:05.340Z,11.97
2017-06-01T02:10:05.010Z,12.01
2017-06-01T02:11:05.622Z,11.97
2017-06-01T02:12:05.301Z,11.93
2017-06-01T02:13:05.287Z,11.97
2017-06-01T02:14:05.677Z,11.99
2017-06-01T02:15:05.578Z,11.89
2017-06-01T02:16:04.932Z,11.99
2017-06-01T02:17:05.236Z,11.89
2017-06-01T02:18:05.535Z,11.93
2017-06-01T02:19:05.208Z,11.78
2017-06-01T02:20:05.192Z,11.8
2017-06-01T02:21:05.177Z,11.77
2017-06-01T02:22:05.164Z,11.77
2017-06-01T02:23:05.144Z,11.86
2017-06-01T02:24:05.476Z,11.85
2017-06-01T02:25:05.502Z,11.82
2017-06-01T02:26:05.425Z,11.83
2017-06-01T02:27:04.781Z,11.82
2017-06-01T02:28:05.083Z,11.85
2017-06-01T02:29:05.103Z,11.82
2017-06-01T02:30:05.417Z,11.8
2017-06-01T02:31:05.357Z,11.77
2017-06-01T02:32:05.024Z,11.8
2017-06-01T02:33:05.327Z,11.82
2017-06-01T02:34:05.021Z,11.8
2017-06-01T02:35:04.988Z,11.77
2017-06-01T02:36:05.281Z,11.62
2017-06-01T02:37:05.271Z,11.71
2017-06-01T02:38:04.950Z,11.72
2017-06-01T02:39:04.931Z,11.67
2017-06-01T02:40:04.912Z,11.68
2017-06-01T02:41:05.216Z,11.64
2017-06-01T02:42:05.226Z,11.68
2017-06-01T02:43:04.873Z,11.71
2017-06-01T02:44:04.864Z,11.71
2017-06-01T02:45:04.850Z,11.7
2017-06-01T02:46:04.835Z,11.64
2017-06-01T02:47:04.819Z,11.65
2017-06-01T02:48:05.122Z,11.65
2017-06-01T02:49:05.108Z,11.68
2017-06-01T02:50:05.092Z,11.62
2017-06-01T02:51:04.764Z,11.72
2017-06-01T02:52:05.062Z,11.67
2017-06-01T02:53:05.056Z,11.64
2017-06-01T02:54:04.725Z,11.61
2017-06-01T02:55:05.022Z,11.56
2017-06-01T02:56:05.009Z,11.53
2017-06-01T02:57:04.369Z,11.52
2017-06-01T02:58:04.981Z,11.56
2017-06-01T02:59:04.974Z,11.56
2017-06-01T03:00:04.637Z,11.47
2017-06-01T03:01:04.324Z,11.52
2017-06-01T03:02:04.930Z,11.49
2017-06-01T03:03:04.911Z,11.53
2017-06-01T03:04:04.902Z,11.53
2017-06-01T03:05:04.886Z,11.56
2017-06-01T03:06:04.555Z,11.47
2017-06-01T03:07:04.552Z,11.47
2017-06-01T03:08:04.530Z,11.47
2017-06-01T03:09:04.830Z,11.46
2017-06-01T03:10:04.843Z,11.39
2017-06-01T03:11:04.813Z,11.41
2017-06-01T03:12:04.474Z,11.38
2017-06-01T03:13:04.777Z,11.32
2017-06-01T03:14:04.965Z,11.34
2017-06-01T03:15:04.806Z,11.35
2017-06-01T03:16:04.429Z,11.34
2017-06-01T03:17:04.726Z,11.39
2017-06-01T03:18:04.528Z,11.35
2017-06-01T03:19:04.697Z,11.36
2017-06-01T03:20:04.412Z,11.32
2017-06-01T03:21:04.347Z,11.28
2017-06-01T03:22:04.650Z,11.28
2017-06-01T03:23:04.645Z,11.27
2017-06-01T03:24:04.302Z,11.34
2017-06-01T03:25:04.304Z,11.31
2017-06-01T03:26:04.277Z,11.28
2017-06-01T03:27:04.261Z,11.29
2017-06-01T03:28:04.565Z,11.29
2017-06-01T03:29:04.548Z,11.21
2017-06-01T03:30:04.221Z,11.34
2017-06-01T03:31:04.209Z,11.29
2017-06-01T03:32:04.192Z,11.28
2017-06-01T03:33:04.493Z,11.38
2017-06-01T03:34:04.168Z,11.21
2017-06-01T03:35:04.459Z,11.21
2017-06-01T03:36:04.140Z,11.19
2017-06-01T03:37:04.438Z,11.24
2017-06-01T03:38:04.111Z,11.14
2017-06-01T03:39:04.094Z,11.19
2017-06-01T03:40:04.082Z,11.24
2017-06-01T03:41:03.763Z,11.21
2017-06-01T03:42:04.369Z,11.27
2017-06-01T03:43:03.728Z,11.27
2017-06-01T03:44:04.024Z,11.21
2017-06-01T03:45:04.327Z,11.31
2017-06-01T03:46:04.310Z,11.25
2017-06-01T03:47:03.979Z,11.27
2017-06-01T03:48:03.968Z,11.27
2017-06-01T03:49:03.951Z,11.32
2017-06-01T03:50:03.988Z,11.32
2017-06-01T03:51:04.238Z,11.27
2017-06-01T03:52:03.908Z,11.21
2017-06-01T03:53:03.895Z,11.25
2017-06-01T03:54:03.900Z,11.25
2017-06-01T03:55:04.188Z,11.27
2017-06-01T03:56:03.850Z,11.25
2017-06-01T03:57:03.841Z,11.28
2017-06-01T03:58:04.145Z,11.29
2017-06-01T03:59:03.498Z,11.28
2017-06-01T04:00:03.801Z,11.28
2017-06-01T04:01:04.095Z,11.31
2017-06-01T04:02:04.081Z,11.28
2017-06-01T04:03:04.068Z,11.31
2017-06-01T04:04:03.739Z,11.34
2017-06-01T04:05:03.731Z,11.38
2017-06-01T04:06:03.717Z,11.41
2017-06-01T04:07:03.380Z,11.36
2017-06-01T04:08:03.367Z,11.36
2017-06-01T04:09:04.081Z,11.39
2017-06-01T04:10:03.652Z,11.41
2017-06-01T04:11:03.376Z,11.32
2017-06-01T04:12:03.937Z,11.36
2017-06-01T04:13:03.608Z,11.43
2017-06-01T04:14:03.911Z,11.46
2017-06-01T04:15:03.267Z,11.44
2017-06-01T04:16:03.567Z,11.44
2017-06-01T04:17:03.553Z,11.43
2017-06-01T04:18:03.856Z,11.52
2017-06-01T04:19:03.211Z,11.56
2017-06-01T04:20:03.824Z,11.56
2017-06-01T04:21:03.498Z,11.53
2017-06-01T04:22:03.486Z,11.49
2017-06-01T04:23:03.473Z,11.53
2017-06-01T04:24:03.459Z,11.5
2017-06-01T04:25:03.764Z,11.52
2017-06-01T04:26:03.429Z,11.52
2017-06-01T04:27:03.426Z,11.53
2017-06-01T04:28:03.400Z,11.64
2017-06-01T04:29:03.391Z,11.57
2017-06-01T04:30:03.373Z,11.61
2017-06-01T04:31:03.358Z,11.71
2017-06-01T04:32:03.653Z,11.68
2017-06-01T04:33:03.643Z,11.68
2017-06-01T04:34:03.631Z,11.7
2017-06-01T04:35:03.303Z,11.85
2017-06-01T04:36:02.973Z,11.78
2017-06-01T04:37:03.272Z,11.78
2017-06-01T04:38:03.576Z,11.93
2017-06-01T04:39:03.559Z,11.9
2017-06-01T04:40:03.564Z,11.93
2017-06-01T04:41:03.219Z,11.9
2017-06-01T04:42:02.909Z,11.99
2017-06-01T04:43:02.876Z,12.08
2017-06-01T04:44:03.495Z,12.02
2017-06-01T04:45:03.477Z,12.06
2017-06-01T04:46:03.458Z,12.05
2017-06-01T04:47:02.820Z,12.05
2017-06-01T04:48:03.436Z,12.21
2017-06-01T04:49:03.421Z,12.16
2017-06-01T04:50:02.775Z,12.21
2017-06-01T04:51:02.765Z,12.23
2017-06-01T04:52:03.106Z,12.2
2017-06-01T04:53:03.051Z,12.24
2017-06-01T04:54:03.043Z,12.23
2017-06-01T04:55:02.763Z,12.34
2017-06-01T04:56:03.008Z,12.34
2017-06-01T04:57:02.679Z,12.31
2017-06-01T04:58:02.981Z,12.41
2017-06-01T04:59:02.653Z,12.34
2017-06-01T05:00:02.962Z,12.38
2017-06-01T05:01:03.258Z,12.48
2017-06-01T05:02:02.934Z,12.41
2017-06-01T05:03:02.599Z,12.52
2017-06-01T05:04:02.903Z,12.48
2017-06-01T05:05:03.201Z,12.49
2017-06-01T05:06:02.562Z,12.49
2017-06-01T05:07:02.858Z,12.54
2017-06-01T05:08:03.171Z,12.63
2017-06-01T05:09:02.830Z,12.62
2017-06-01T05:10:02.831Z,12.66
2017-06-01T05:11:02.870Z,12.63
2017-06-01T05:12:03.114Z,12.62
2017-06-01T05:13:02.781Z,12.7
2017-06-01T05:14:02.454Z,12.66
2017-06-01T05:15:02.758Z,12.7
2017-06-01T05:16:03.052Z,12.7
2017-06-01T05:17:02.720Z,12.79
2017-06-01T05:18:02.709Z,12.74
2017-06-01T05:19:02.387Z,12.79
2017-06-01T05:20:02.686Z,12.79
2017-06-01T05:21:02.668Z,12.84
2017-06-01T05:22:02.652Z,12.85
2017-06-01T05:23:02.640Z,12.87
2017-06-01T05:24:02.314Z,12.99
2017-06-01T05:25:02.621Z,12.97
2017-06-01T05:26:02.918Z,12.99
2017-06-01T05:27:02.900Z,13.03
2017-06-01T05:28:02.888Z,13.11
2017-06-01T05:29:02.564Z,13.12
2017-06-01T05:30:02.554Z,13.06
2017-06-01T05:31:02.225Z,13.18
2017-06-01T05:32:02.836Z,13.17
2017-06-01T05:33:02.825Z,13.17
2017-06-01T05:34:02.520Z,13.21
2017-06-01T05:35:02.543Z,13.2
2017-06-01T05:36:02.788Z,13.24
2017-06-01T05:37:02.774Z,13.2
2017-06-01T05:38:02.443Z,13.25
2017-06-01T05:39:02.115Z,13.36
2017-06-01T05:40:02.104Z,13.4
2017-06-01T05:41:02.407Z,13.44
2017-06-01T05:42:02.711Z,13.43
2017-06-01T05:43:02.066Z,13.46
2017-06-01T05:44:02.374Z,13.54
2017-06-01T05:45:02.668Z,13.54
2017-06-01T05:46:02.657Z,13.56
2017-06-01T05:47:02.332Z,13.56
2017-06-01T05:48:02.321Z,13.7
2017-06-01T05:49:02.619Z,13.74
2017-06-01T05:50:02.292Z,13.76
2017-06-01T05:51:02.276Z,13.73
2017-06-01T05:52:02.578Z,13.79
2017-06-01T05:53:02.252Z,13.79
2017-06-01T05:54:02.239Z,13.84
2017-06-01T05:55:02.545Z,13.91
2017-06-01T05:56:02.213Z,13.83
2017-06-01T05:57:02.201Z,13.81
2017-06-01T05:58:02.508Z,13.92
2017-06-01T05:59:02.177Z,13.95
2017-06-01T06:00:02.478Z,13.99
2017-06-01T06:01:02.150Z,14.02
2017-06-01T06:02:02.144Z,14.12
2017-06-01T06:03:02.443Z,14.07
2017-06-01T06:04:02.116Z,14.07
2017-06-01T06:05:02.100Z,14.14
2017-06-01T06:06:02.401Z,14.24
2017-06-01T06:07:02.400Z,14.14
2017-06-01T06:08:02.065Z,14.17
2017-06-01T06:09:02.054Z,14.69
2017-06-01T06:10:01.721Z,15.36
2017-06-01T06:11:02.027Z,16.26
2017-06-01T06:12:02.018Z,17.11
2017-06-01T06:13:02.008Z,17.67
2017-06-01T06:14:02.312Z,18.18
2017-06-01T06:15:01.871Z,18.59
2017-06-01T06:16:01.972Z,19.31
2017-06-01T06:17:01.995Z,19.95
2017-06-01T06:18:02.269Z,19.98
2017-06-01T06:19:01.637Z,19.6
2017-06-01T06:20:02.248Z,18.83
2017-06-01T06:21:02.245Z,18.27
2017-06-01T06:22:02.225Z,17.71
2017-06-01T06:23:02.223Z,17.32
2017-06-01T06:24:02.207Z,17.03
2017-06-01T06:25:02.196Z,16.85
2017-06-01T06:26:02.186Z,16.59
2017-06-01T06:27:01.862Z,16.37
2017-06-01T06:28:01.539Z,16.31
2017-06-01T06:29:01.842Z,16.18
2017-06-01T06:30:01.831Z,16.03
2017-06-01T06:31:01.508Z,15.99
2017-06-01T06:32:02.126Z,15.88
2017-06-01T06:33:01.797Z,15.76
2017-06-01T06:34:01.806Z,15.79
2017-06-01T06:35:02.090Z,15.66
2017-06-01T06:36:01.771Z,15.61
2017-06-01T06:37:01.754Z,15.64
2017-06-01T06:38:01.745Z,15.67
2017-06-01T06:39:01.740Z,15.66
2017-06-01T06:40:01.731Z,15.6
2017-06-01T06:41:01.717Z,15.66
2017-06-01T06:42:02.022Z,15.66
2017-06-01T06:43:01.690Z,15.66
2017-06-01T06:44:01.680Z,15.67
2017-06-01T06:45:01.350Z,15.68
2017-06-01T06:46:01.972Z,15.66
2017-06-01T06:47:01.646Z,15.67
2017-06-01T06:48:01.953Z,15.75
2017-06-01T06:49:01.631Z,15.74
2017-06-01T06:50:01.933Z,15.68
2017-06-01T06:51:01.298Z,15.79
2017-06-01T06:52:01.597Z,15.84
2017-06-01T06:53:01.586Z,15.92
2017-06-01T06:54:01.895Z,16
2017-06-01T06:55:01.570Z,16.11
2017-06-01T06:56:01.559Z,16.11
2017-06-01T06:57:01.867Z,16.18
2017-06-01T06:58:01.232Z,16.23
2017-06-01T06:59:01.219Z,16.31
2017-06-01T07:00:01.838Z,16.37
2017-06-01T07:01:01.517Z,16.37
2017-06-01T07:02:01.507Z,16.52
2017-06-01T07:03:01.501Z,16.53
2017-06-01T07:04:01.488Z,16.49
2017-06-01T07:05:01.169Z,16.5
2017-06-01T07:06:01.473Z,16.6
2017-06-01T07:07:01.778Z,16.67
2017-06-01T07:08:01.774Z,16.7
2017-06-01T07:09:01.129Z,16.71
2017-06-01T07:10:01.432Z,16.7
2017-06-01T07:11:01.423Z,16.71
2017-06-01T07:12:01.419Z,16.71
2017-06-01T07:13:01.725Z,16.73
2017-06-01T07:14:01.718Z,16.71
2017-06-01T07:15:01.395Z,16.7
2017-06-01T07:16:01.386Z,16.74
2017-06-01T07:17:01.696Z,16.77
2017-06-01T07:18:01.367Z,16.71
2017-06-01T07:19:01.361Z,16.77
2017-06-01T07:20:01.045Z,16.74
2017-06-01T07:21:01.669Z,16.68
2017-06-01T07:22:01.026Z,16.89
2017-06-01T07:23:01.336Z,16.85
2017-06-01T07:24:01.330Z,16.67
2017-06-01T07:25:01.331Z,16.65
2017-06-01T07:26:01.002Z,16.77
2017-06-01T07:27:01.624Z,16.78
2017-06-01T07:28:01.316Z,17.07
2017-06-01T07:29:01.296Z,18.09
2017-06-01T07:30:01.291Z,19.35
2017-06-01T07:31:01.293Z,20.39
2017-06-01T07:32:01.279Z,21.29
2017-06-01T07:33:01.273Z,21.98
2017-06-01T07:34:01.318Z,22.53
2017-06-01T07:35:01.580Z,23.17
2017-06-01T07:36:01.263Z,23.77
2017-06-01T07:37:01.260Z,24.26
2017-06-01T07:38:01.256Z,24.82
2017-06-01T07:39:01.565Z,25.19
2017-06-01T07:40:01.565Z,25.69
2017-06-01T07:41:01.248Z,26.04
2017-06-01T07:42:00.927Z,26.43
2017-06-01T07:43:01.552Z,26.76
2017-06-01T07:44:01.549Z,26.91
2017-06-01T07:45:01.544Z,26.89
2017-06-01T07:46:00.914Z,27.05
2017-06-01T07:47:01.225Z,27.06
2017-06-01T07:48:01.227Z,26.99
2017-06-01T07:49:01.539Z,27.11
2017-06-01T07:50:01.221Z,27.31
2017-06-01T07:51:01.216Z,27.48
2017-06-01T07:52:01.540Z,27.67
2017-06-01T07:53:01.219Z,27.64
2017-06-01T07:54:01.211Z,27.61
2017-06-01T07:55:01.217Z,27.8
2017-06-01T07:56:01.208Z,27.89
2017-06-01T07:57:00.891Z,28.16
2017-06-01T07:58:01.525Z,28.44
2017-06-01T07:59:01.575Z,28.69
2017-06-01T08:00:01.521Z,28.72
2017-06-01T08:01:01.520Z,28.9
2017-06-01T08:02:01.226Z,28.95
2017-06-01T08:03:01.530Z,29.01
2017-06-01T08:04:00.950Z,28.68
2017-06-01T08:05:01.518Z,28.72
2017-06-01T08:06:01.205Z,29
2017-06-01T08:07:01.202Z,29.34
2017-06-01T08:08:01.203Z,28.73
2017-06-01T08:09:01.520Z,28.75
2017-06-01T08:10:01.200Z,29.1
2017-06-01T08:11:01.520Z,29.34
2017-06-01T08:12:01.237Z,29.43
2017-06-01T08:13:01.202Z,29.72
2017-06-01T08:14:01.518Z,29.81
2017-06-01T08:15:01.720Z,30.02
2017-06-01T08:16:01.252Z,30.05
2017-06-01T08:17:01.211Z,30.11
2017-06-01T08:18:01.213Z,30.11
2017-06-01T08:19:01.217Z,30.19
2017-06-01T08:20:01.546Z,30.21
2017-06-01T08:21:01.220Z,29.86
2017-06-01T08:22:01.524Z,29.75
2017-06-01T08:23:00.902Z,29.92
2017-06-01T08:24:01.533Z,29.92
2017-06-01T08:25:01.534Z,29.92
2017-06-01T08:26:01.537Z,30.11
2017-06-01T08:27:01.535Z,30.24
2017-06-01T08:28:01.541Z,30.31
2017-06-01T08:29:00.912Z,30.53
2017-06-01T08:30:01.239Z,30.49
2017-06-01T08:31:01.232Z,30.21
2017-06-01T08:32:01.235Z,30.18
2017-06-01T08:33:01.238Z,30.29
2017-06-01T08:34:01.233Z,30.4
2017-06-01T08:35:01.243Z,30.38
2017-06-01T08:36:00.921Z,30.37
2017-06-01T08:37:01.239Z,30.43
2017-06-01T08:38:01.241Z,30.5
2017-06-01T08:39:01.246Z,30.65
2017-06-01T08:40:01.245Z,30.86
2017-06-01T08:41:01.245Z,30.98
2017-06-01T08:42:01.251Z,31.08
2017-06-01T08:43:01.250Z,30.98
2017-06-01T08:44:01.257Z,30.78
2017-06-01T08:45:01.574Z,30.76
2017-06-01T08:46:01.261Z,30.83
2017-06-01T08:47:01.575Z,30.83
2017-06-01T08:48:01.263Z,30.8
2017-06-01T08:49:01.267Z,30.43
2017-06-01T08:50:01.591Z,30.45
2017-06-01T08:51:01.588Z,30.68
2017-06-01T08:52:01.277Z,30.57
2017-06-01T08:53:01.586Z,30.05
2017-06-01T08:54:01.592Z,29.56
2017-06-01T08:55:01.594Z,28.97
2017-06-01T08:56:01.280Z,28.47
2017-06-01T08:57:01.283Z,28.01
2017-06-01T08:58:01.287Z,27.59
2017-06-01T08:59:01.285Z,27.29
2017-06-01T09:00:01.601Z,27.01
2017-06-01T09:01:01.600Z,26.83
2017-06-01T09:02:00.977Z,27.17
2017-06-01T09:03:01.289Z,27.01
2017-06-01T09:04:01.598Z,26.79
2017-06-01T09:05:01.286Z,26.35
2017-06-01T09:06:01.285Z,26.11
2017-06-01T09:07:01.605Z,25.8
2017-06-01T09:08:00.973Z,25.61
2017-06-01T09:09:01.601Z,25.37
2017-06-01T09:10:01.286Z,25.25
2017-06-01T09:11:01.602Z,25.1
2017-06-01T09:12:01.285Z,25.24
2017-06-01T09:13:00.965Z,25.2
2017-06-01T09:14:01.279Z,25.07
2017-06-01T09:15:01.595Z,24.64
2017-06-01T09:16:01.281Z,24.67
2017-06-01T09:17:01.593Z,24.67
2017-06-01T09:18:01.277Z,24.76
2017-06-01T09:19:01.275Z,24.94
2017-06-01T09:20:01.587Z,25.54
2017-06-01T09:21:01.275Z,26.12
2017-06-01T09:22:01.270Z,26.59
2017-06-01T09:23:01.273Z,27.02
2017-06-01T09:24:01.274Z,27.29
2017-06-01T09:25:01.586Z,27.69
2017-06-01T09:26:01.282Z,27.94
2017-06-01T09:27:01.274Z,28.1
2017-06-01T09:28:01.278Z,28.31
2017-06-01T09:29:01.286Z,28.59
2017-06-01T09:30:01.280Z,28.7
2017-06-01T09:31:01.598Z,29.2
2017-06-01T09:32:00.974Z,29.49
2017-06-01T09:33:01.602Z,29.68
2017-06-01T09:34:01.297Z,29.63
2017-06-01T09:35:01.354Z,29.26
2017-06-01T09:36:01.300Z,29.22
2017-06-01T09:37:01.311Z,29.52
2017-06-01T09:38:01.314Z,29.75
2017-06-01T09:39:01.629Z,29.87
2017-06-01T09:40:01.310Z,29.93
2017-06-01T09:41:01.315Z,29.74
2017-06-01T09:42:01.328Z,29.49
2017-06-01T09:43:01.005Z,29.1
2017-06-01T09:44:01.638Z,28.62
2017-06-01T09:45:01.638Z,28.16
2017-06-01T09:46:01.348Z,27.96
2017-06-01T09:47:01.651Z,27.99
2017-06-01T09:48:01.710Z,28.14
2017-06-01T09:49:01.369Z,27.98
2017-06-01T09:50:01.653Z,27.77
2017-06-01T09:51:01.661Z,27.64
2017-06-01T09:52:01.350Z,27.42
2017-06-01T09:53:01.378Z,27.59
2017-06-01T09:54:01.039Z,27.67
2017-06-01T09:55:01.363Z,27.69
2017-06-01T09:56:01.362Z,27.88
2017-06-01T09:57:01.687Z,28.04
2017-06-01T09:58:01.369Z,28.26
2017-06-01T09:59:01.690Z,28.04
2017-06-01T10:00:01.382Z,28.21
2017-06-01T10:01:01.392Z,28.33
2017-06-01T10:02:01.701Z,28.36
2017-06-01T10:03:01.711Z,28.44
2017-06-01T10:04:01.704Z,28.72
2017-06-01T10:05:01.708Z,29
2017-06-01T10:06:01.083Z,29.25
2017-06-01T10:07:01.403Z,29.5
2017-06-01T10:08:01.723Z,29.65
2017-06-01T10:09:01.094Z,29.84
2017-06-01T10:10:01.097Z,29.57
2017-06-01T10:11:01.414Z,29.13
2017-06-01T10:12:01.421Z,28.91
2017-06-01T10:13:01.112Z,28.81
2017-06-01T10:14:01.119Z,28.41
2017-06-01T10:15:01.432Z,27.85
2017-06-01T10:16:01.123Z,28.21
2017-06-01T10:17:01.437Z,28.53
2017-06-01T10:18:01.759Z,28.7
2017-06-01T10:19:01.134Z,29.19
2017-06-01T10:20:01.138Z,29.5
2017-06-01T10:21:01.143Z,29.81
2017-06-01T10:22:01.461Z,30.08
2017-06-01T10:23:01.152Z,30.27
2017-06-01T10:24:01.790Z,30.23
2017-06-01T10:25:01.786Z,30.27
2017-06-01T10:26:01.476Z,30.52
2017-06-01T10:27:01.486Z,30.62
2017-06-01T10:28:01.489Z,30.69
2017-06-01T10:29:01.531Z,30.74
2017-06-01T10:30:01.499Z,30.67
2017-06-01T10:31:01.187Z,30.86
2017-06-01T10:32:01.819Z,30.94
2017-06-01T10:33:01.827Z,30.96
2017-06-01T10:34:01.514Z,31.08
2017-06-01T10:35:01.203Z,30.94
2017-06-01T10:36:01.522Z,30.8
2017-06-01T10:37:01.841Z,30.72
2017-06-01T10:38:01.846Z,30.59
2017-06-01T10:39:01.224Z,30.29
2017-06-01T10:40:01.538Z,30.27
2017-06-01T10:41:01.544Z,29.77
2017-06-01T10:42:01.549Z,29.81
2017-06-01T10:43:01.895Z,29.63
2017-06-01T10:44:01.870Z,29.66
2017-06-01T10:45:01.253Z,29.9
2017-06-01T10:46:01.931Z,30.08
2017-06-01T10:47:01.882Z,30.23
2017-06-01T10:48:01.574Z,30.19
2017-06-01T10:49:01.577Z,29.81
2017-06-01T10:50:01.591Z,29.9
2017-06-01T10:51:01.899Z,30.12
2017-06-01T10:52:01.901Z,30.33
2017-06-01T10:53:01.595Z,30.54
2017-06-01T10:54:01.918Z,30.68
2017-06-01T10:55:01.605Z,30.67
2017-06-01T10:56:01.925Z,30.75
2017-06-01T10:57:01.930Z,30.68
2017-06-01T10:58:01.301Z,30.76
2017-06-01T10:59:01.305Z,30.87
2017-06-01T11:00:01.938Z,31.18
2017-06-01T11:01:01.312Z,31.26
2017-06-01T11:02:01.949Z,31.38
2017-06-01T11:03:01.646Z,31.55
2017-06-01T11:04:01.643Z,31.8
2017-06-01T11:05:01.961Z,31.93
2017-06-01T11:06:01.650Z,32.05
2017-06-01T11:07:01.654Z,32.13
2017-06-01T11:08:01.669Z,32.17
2017-06-01T11:09:01.975Z,32.06
2017-06-01T11:10:01.990Z,31.72
2017-06-01T11:11:01.674Z,31.38
2017-06-01T11:12:01.677Z,31.38
2017-06-01T11:13:01.679Z,31.48
2017-06-01T11:14:02.001Z,31.15
2017-06-01T11:15:02.003Z,31.08
2017-06-01T11:16:01.696Z,31.17
2017-06-01T11:17:01.390Z,31.08
2017-06-01T11:18:01.708Z,31.08
2017-06-01T11:19:02.023Z,30.91
2017-06-01T11:20:01.713Z,31.09
2017-06-01T11:21:01.718Z,31.27
2017-06-01T11:22:01.744Z,31.35
2017-06-01T11:23:01.732Z,31.13
2017-06-01T11:24:02.050Z,31.13
2017-06-01T11:25:01.739Z,31.36
2017-06-01T11:26:01.748Z,31.6
2017-06-01T11:27:01.746Z,31.91
2017-06-01T11:28:01.781Z,31.98
2017-06-01T11:29:01.756Z,32.18
2017-06-01T11:30:01.761Z,32.14
2017-06-01T11:31:02.083Z,32.02
2017-06-01T11:32:01.456Z,32.03
2017-06-01T11:33:02.093Z,32.24
2017-06-01T11:34:01.778Z,32.49
2017-06-01T11:35:02.099Z,32.49
2017-06-01T11:36:02.114Z,32.73
2017-06-01T11:37:01.801Z,32.84
2017-06-01T11:38:01.490Z,32.84
2017-06-01T11:39:02.123Z,32.84
2017-06-01T11:40:01.813Z,32.71
2017-06-01T11:41:01.506Z,32.73
2017-06-01T11:42:01.509Z,32.76
2017-06-01T11:43:01.518Z,32.62
2017-06-01T11:44:02.148Z,32.47
2017-06-01T11:45:01.521Z,32.39
2017-06-01T11:46:01.842Z,32.54
2017-06-01T11:47:01.581Z,32.64
2017-06-01T11:48:01.849Z,32.73
2017-06-01T11:49:01.542Z,32.81
2017-06-01T11:50:01.861Z,32.61
2017-06-01T11:51:01.868Z,32.76
2017-06-01T11:52:01.557Z,32.76
2017-06-01T11:53:01.870Z,32.84
2017-06-01T11:54:01.565Z,32.42
2017-06-01T11:55:01.567Z,32.42
2017-06-01T11:56:01.890Z,32.35
2017-06-01T11:57:02.215Z,32.62
2017-06-01T11:58:02.224Z,32.43
2017-06-01T11:59:01.594Z,32.57
2017-06-01T12:00:01.594Z,32.74
2017-06-01T12:01:01.599Z,32.73
2017-06-01T12:02:01.918Z,32.73
2017-06-01T12:03:02.235Z,32.8
2017-06-01T12:04:01.930Z,32.76
2017-06-01T12:05:02.245Z,32.8
2017-06-01T12:06:01.938Z,32.8
2017-06-01T12:07:01.991Z,32.98
2017-06-01T12:08:01.632Z,32.99
2017-06-01T12:09:01.951Z,33.19
2017-06-01T12:10:01.958Z,33.34
2017-06-01T12:11:01.970Z,33.45
2017-06-01T12:12:02.284Z,33.46
2017-06-01T12:13:01.974Z,33.49
2017-06-01T12:14:01.987Z,33.49
2017-06-01T12:15:01.879Z,33.51
2017-06-01T12:16:02.324Z,33.53
2017-06-01T12:17:02.003Z,33.46
2017-06-01T12:18:01.996Z,33.13
2017-06-01T12:19:02.002Z,33.08
2017-06-01T12:20:02.330Z,33.06
2017-06-01T12:21:02.332Z,33.19
2017-06-01T12:22:02.018Z,33.03
2017-06-01T12:23:01.710Z,33.15
2017-06-01T12:24:02.341Z,33.26
2017-06-01T12:25:02.030Z,33.15
2017-06-01T12:26:02.036Z,33.11
2017-06-01T12:27:02.049Z,33.14
2017-06-01T12:28:02.041Z,33.2
2017-06-01T12:29:02.046Z,33.43
2017-06-01T12:30:02.054Z,33.45
2017-06-01T12:31:02.059Z,33.36
2017-06-01T12:32:01.795Z,33.11
2017-06-01T12:33:01.752Z,33.14
2017-06-01T12:34:02.385Z,33.13
2017-06-01T12:35:01.761Z,33.15
2017-06-01T12:36:02.080Z,32.71
2017-06-01T12:37:01.770Z,32.49
2017-06-01T12:38:02.403Z,32.47
2017-06-01T12:39:02.103Z,32.61
2017-06-01T12:40:02.410Z,32.8
2017-06-01T12:41:02.425Z,33.01
2017-06-01T12:42:02.420Z,33.14
2017-06-01T12:43:01.797Z,33.22
2017-06-01T12:44:02.115Z,33.3
2017-06-01T12:45:02.430Z,33.15
2017-06-01T12:46:02.438Z,33.2
2017-06-01T12:47:02.133Z,32.57
2017-06-01T12:48:02.131Z,32.74
2017-06-01T12:49:02.455Z,32.64
2017-06-01T12:50:02.140Z,32.71
2017-06-01T12:51:02.460Z,32.7
2017-06-01T12:52:01.833Z,32.25
2017-06-01T12:53:02.154Z,32.21
2017-06-01T12:54:01.847Z,32.33
2017-06-01T12:55:02.471Z,31.84